LFBG/CNG METAR and TAF weather

Enter ICAO airport designator
Station Type Date Time Source
LFBG METAR 2021/09/25 12:30 UTC NOAA

LFBG 251230Z AUTO 14007KT CAVOK 24/18 Q1014 TEMPO 20010G20KT 4000 TSRA BECMG SCT040CB


Station Type Date Time Source
LFBG Decoded METAR 2021/09/25 12:30 UTC NOAA

Cognac, France (LFBG) 45-40N 000-19W 31M
Sep 25, 2021 - 08:30 AM EDT / 2021.09.25 1230 UTC
Wind: from the SE (140 degrees) at 8 MPH (7 KT):0
Visibility: greater than 7 mile(s):0
Weather: Cumulonimbus clouds observed
Temperature: 75 F (24 C)
Dew Point: 64 F (18 C)
Relative Humidity: 69%
Pressure (altimeter): 29.94 in. Hg (1014 hPa)
ob: LFBG 251230Z AUTO 14007KT CAVOK 24/18 Q1014 TEMPO 20010G20KT 4000 TSRA BECMG SCT040CB
cycle: 12

Station Type Date Time Source
LFBG TAF 2021/09/25 09:10 UTC NOAA

TAF LFBG 250800Z 2509/2609 08005KT 9999 SCT040CB
TEMPO 2510/2516 20010G20KT 4000 TSRA

Example: see airport list